createdAt,value
2023-04-29T00:01:20.974Z,5.05
2023-04-29T00:03:48.068Z,4.68
2023-04-29T00:06:15.476Z,4.82
2023-04-29T00:08:43.386Z,4.75
2023-04-29T00:11:11.313Z,5.35
2023-04-29T00:13:40.973Z,4.57
2023-04-29T00:16:09.141Z,4.70
2023-04-29T00:18:37.293Z,4.55
2023-04-29T00:21:07.630Z,4.85
2023-04-29T00:23:34.696Z,5.18
2023-04-29T00:26:01.388Z,4.35
2023-04-29T00:28:28.238Z,3.97
2023-04-29T00:30:56.191Z,4.28
2023-04-29T00:33:23.291Z,4.97
2023-04-29T00:35:50.304Z,5.50
2023-04-29T00:38:17.434Z,5.68
2023-04-29T00:40:44.848Z,5.90
2023-04-29T00:43:11.549Z,5.97
2023-04-29T00:45:38.381Z,6.05
2023-04-29T00:48:05.443Z,7.03
2023-04-29T00:50:32.520Z,5.80
2023-04-29T00:53:00.234Z,5.85
2023-04-29T00:55:27.456Z,5.07
2023-04-29T00:57:54.081Z,5.47
2023-04-29T01:00:20.778Z,6.43
2023-04-29T01:02:49.123Z,5.60
2023-04-29T01:05:16.555Z,5.85
2023-04-29T01:07:59.647Z,5.93
2023-04-29T01:10:32.219Z,6.03
2023-04-29T01:13:19.332Z,5.28
2023-04-29T01:16:03.886Z,4.70
2023-04-29T01:18:39.415Z,5.65
2023-04-29T01:21:06.362Z,5.57
2023-04-29T01:23:33.514Z,5.53
2023-04-29T01:26:00.778Z,5.13
2023-04-29T01:29:02.399Z,5.55
2023-04-29T01:31:47.406Z,5.93
2023-04-29T01:34:34.312Z,5.43
2023-04-29T01:37:01.047Z,5.93
2023-04-29T01:39:36.292Z,5.72
2023-04-29T01:42:34.875Z,6.82
2023-04-29T01:45:06.545Z,6.35
2023-04-29T01:47:34.100Z,5.60
2023-04-29T01:50:01.353Z,6.03
2023-04-29T01:52:28.786Z,5.72
2023-04-29T01:54:55.660Z,6.43
2023-04-29T01:57:22.314Z,6.22
2023-04-29T01:59:48.906Z,5.95
2023-04-29T02:02:15.866Z,6.25
2023-04-29T02:04:43.157Z,5.97
2023-04-29T02:07:09.972Z,5.75
2023-04-29T02:09:36.725Z,6.22
2023-04-29T02:12:04.793Z,6.07
2023-04-29T02:14:31.860Z,5.70
2023-04-29T02:16:58.594Z,5.60
2023-04-29T02:19:25.380Z,5.75
2023-04-29T02:21:52.163Z,5.10
2023-04-29T02:24:18.789Z,5.68
2023-04-29T02:26:45.833Z,5.15
2023-04-29T02:29:12.541Z,5.25
2023-04-29T02:31:39.238Z,5.07
2023-04-29T02:34:05.934Z,6.22
2023-04-29T02:36:32.991Z,5.35
2023-04-29T02:39:00.571Z,5.95
2023-04-29T02:41:27.347Z,4.25
2023-04-29T02:43:54.025Z,4.78
2023-04-29T02:46:20.739Z,5.70
2023-04-29T02:48:47.611Z,4.88
2023-04-29T02:51:14.913Z,4.60
2023-04-29T02:53:41.587Z,4.13
2023-04-29T02:56:08.290Z,4.03
2023-04-29T02:58:34.924Z,4.55
2023-04-29T03:01:01.580Z,4.18
2023-04-29T03:03:28.441Z,4.18
2023-04-29T03:05:55.167Z,5.20
2023-04-29T03:08:22.517Z,4.32
2023-04-29T03:10:49.117Z,4.72
2023-04-29T03:13:16.114Z,4.18
2023-04-29T03:15:42.834Z,4.90
2023-04-29T03:18:09.865Z,4.88
2023-04-29T03:20:37.104Z,5.00
2023-04-29T03:23:03.954Z,4.13
2023-04-29T03:25:31.450Z,3.97
2023-04-29T03:27:58.091Z,4.20
2023-04-29T03:30:24.829Z,4.18
2023-04-29T03:32:51.584Z,4.70
2023-04-29T03:35:18.382Z,4.20
2023-04-29T03:37:45.337Z,4.13
2023-04-29T03:40:12.879Z,3.92
2023-04-29T03:42:39.847Z,5.10
2023-04-29T03:45:07.151Z,4.75
2023-04-29T03:47:33.937Z,3.85
2023-04-29T03:50:00.558Z,4.10
2023-04-29T03:52:27.469Z,4.10
2023-04-29T03:54:54.177Z,4.82
2023-04-29T03:57:20.887Z,4.35
2023-04-29T03:59:50.743Z,4.43
2023-04-29T04:02:18.080Z,4.18
2023-04-29T04:04:44.977Z,4.40
2023-04-29T04:07:14.668Z,4.10
2023-04-29T04:09:41.512Z,4.72
2023-04-29T04:12:08.183Z,5.95
2023-04-29T04:14:34.824Z,8.27
2023-04-29T04:17:01.660Z,6.38
2023-04-29T04:19:29.556Z,5.78
2023-04-29T04:21:56.404Z,5.18
2023-04-29T04:24:23.480Z,4.55
2023-04-29T04:26:50.446Z,3.95
2023-04-29T04:29:17.154Z,3.78
2023-04-29T04:31:46.718Z,5.15
2023-04-29T04:34:13.849Z,4.05
2023-04-29T04:36:41.457Z,4.13
2023-04-29T04:39:08.503Z,3.40
2023-04-29T04:41:35.937Z,4.72
2023-04-29T04:44:03.079Z,4.88
2023-04-29T04:46:29.825Z,4.28
2023-04-29T04:48:56.599Z,4.70
2023-04-29T04:51:23.345Z,4.75
2023-04-29T04:53:49.975Z,3.75
2023-04-29T04:56:16.700Z,3.70
2023-04-29T04:58:43.399Z,4.50
2023-04-29T05:01:10.235Z,3.35
2023-04-29T05:03:37.326Z,3.47
2023-04-29T05:06:04.686Z,3.00
2023-04-29T05:08:31.465Z,3.53
2023-04-29T05:10:58.625Z,3.67
2023-04-29T05:13:28.390Z,3.20
2023-04-29T05:15:54.959Z,3.60
2023-04-29T05:18:21.747Z,3.30
2023-04-29T05:20:48.421Z,3.88
2023-04-29T05:23:15.080Z,4.55
2023-04-29T05:25:42.547Z,5.38
2023-04-29T05:28:09.292Z,4.03
2023-04-29T05:30:36.000Z,5.07
2023-04-29T05:33:03.672Z,4.57
2023-04-29T05:35:31.138Z,3.75
2023-04-29T05:37:57.850Z,3.42
2023-04-29T05:40:25.005Z,3.40
2023-04-29T05:42:52.743Z,3.35
2023-04-29T05:45:19.627Z,3.35
2023-04-29T05:47:46.455Z,3.70
2023-04-29T05:50:13.314Z,3.58
2023-04-29T05:52:39.976Z,4.53
2023-04-29T05:55:06.647Z,6.75
2023-04-29T05:57:33.299Z,3.63
2023-04-29T06:00:00.388Z,5.60
2023-04-29T06:02:27.794Z,4.25
2023-04-29T06:04:54.974Z,4.63
2023-04-29T06:07:21.913Z,4.28
2023-04-29T06:09:48.704Z,4.80
2023-04-29T06:12:15.507Z,3.75
2023-04-29T06:14:42.593Z,4.75
2023-04-29T06:17:09.167Z,4.60
2023-04-29T06:19:36.128Z,4.60
2023-04-29T06:22:02.829Z,4.18
2023-04-29T06:24:29.650Z,4.00
2023-04-29T06:26:56.514Z,4.07
2023-04-29T06:29:23.335Z,4.50
2023-04-29T06:31:50.016Z,3.20
2023-04-29T06:34:16.698Z,3.67
2023-04-29T06:36:43.338Z,3.70
2023-04-29T06:39:10.090Z,3.47
2023-04-29T06:41:37.004Z,3.60
2023-04-29T06:44:03.784Z,3.45
2023-04-29T06:46:30.521Z,3.38
2023-04-29T06:48:57.252Z,3.47
2023-04-29T06:51:25.110Z,3.90
2023-04-29T06:53:51.809Z,3.17
2023-04-29T06:56:18.955Z,3.50
2023-04-29T06:58:45.549Z,3.88
2023-04-29T07:01:12.237Z,3.72
2023-04-29T07:03:39.466Z,3.88
2023-04-29T07:06:06.897Z,3.38
2023-04-29T07:08:33.622Z,3.15
2023-04-29T07:11:00.240Z,4.40
2023-04-29T07:13:26.972Z,3.70
2023-04-29T07:15:53.640Z,4.22
2023-04-29T07:18:20.442Z,3.95
2023-04-29T07:20:48.122Z,4.38
2023-04-29T07:23:15.224Z,4.22
2023-04-29T07:25:42.026Z,3.85
2023-04-29T07:28:09.271Z,3.78
2023-04-29T07:30:36.484Z,3.83
2023-04-29T07:33:04.529Z,3.67
2023-04-29T07:35:31.712Z,5.13
2023-04-29T07:37:58.380Z,4.15
2023-04-29T07:40:25.129Z,4.57
2023-04-29T07:42:51.914Z,4.07
2023-04-29T07:45:18.697Z,3.97
2023-04-29T07:47:45.965Z,4.72
2023-04-29T07:50:13.016Z,4.10
2023-04-29T07:52:39.713Z,4.80
2023-04-29T07:55:06.742Z,3.90
2023-04-29T07:57:33.435Z,5.43
2023-04-29T08:00:00.044Z,4.35
2023-04-29T08:02:27.237Z,4.22
2023-04-29T08:04:56.137Z,4.13
2023-04-29T08:07:23.435Z,3.67
2023-04-29T08:09:50.060Z,3.25
2023-04-29T08:12:16.796Z,4.40
2023-04-29T08:14:43.474Z,3.63
2023-04-29T08:17:10.227Z,3.70
2023-04-29T08:19:36.869Z,3.58
2023-04-29T08:22:04.455Z,3.15
2023-04-29T08:24:31.262Z,3.70
2023-04-29T08:26:59.261Z,4.25
2023-04-29T08:29:26.093Z,3.15
2023-04-29T08:31:53.113Z,4.35
2023-04-29T08:34:19.880Z,2.80
2023-04-29T08:36:46.619Z,2.97
2023-04-29T08:39:13.310Z,3.58
2023-04-29T08:41:40.064Z,3.13
2023-04-29T08:44:06.960Z,3.53
2023-04-29T08:46:33.860Z,4.47
2023-04-29T08:49:04.524Z,4.07
2023-04-29T08:51:33.262Z,3.13
2023-04-29T08:54:00.128Z,3.50
2023-04-29T08:56:28.881Z,3.53
2023-04-29T08:58:58.962Z,4.00
2023-04-29T09:01:28.901Z,3.28
2023-04-29T09:04:10.084Z,3.05
2023-04-29T09:06:37.033Z,3.08
2023-04-29T09:09:04.350Z,3.42
2023-04-29T09:11:31.534Z,3.20
2023-04-29T09:14:02.395Z,2.80
2023-04-29T09:16:29.462Z,3.50
2023-04-29T09:18:57.031Z,2.70
2023-04-29T09:21:25.466Z,3.30
2023-04-29T09:23:55.008Z,3.50
2023-04-29T09:26:22.588Z,3.05
2023-04-29T09:29:06.247Z,3.00
2023-04-29T09:31:32.819Z,4.38
2023-04-29T09:33:59.438Z,2.70
2023-04-29T09:36:45.665Z,3.08
2023-04-29T09:39:17.956Z,2.63
2023-04-29T09:41:50.644Z,2.45
2023-04-29T09:44:17.406Z,2.75
2023-04-29T09:46:44.367Z,3.25
2023-04-29T09:49:25.706Z,2.55
2023-04-29T09:51:57.887Z,2.53
2023-04-29T09:54:26.433Z,2.80
2023-04-29T09:56:53.520Z,2.03
2023-04-29T09:59:21.071Z,5.75
2023-04-29T10:01:54.161Z,2.50
2023-04-29T10:04:22.887Z,3.40
2023-04-29T10:06:51.519Z,2.22
2023-04-29T10:09:19.568Z,2.80
2023-04-29T10:11:50.885Z,1.90
2023-04-29T10:14:22.786Z,2.15
2023-04-29T10:16:54.554Z,2.30
2023-04-29T10:19:28.266Z,2.55
2023-04-29T10:22:00.765Z,2.20
2023-04-29T10:24:27.558Z,1.90
2023-04-29T10:26:56.782Z,1.65
2023-04-29T10:29:27.487Z,1.83
2023-04-29T10:31:56.114Z,2.85
2023-04-29T10:34:24.624Z,1.60
2023-04-29T10:36:51.764Z,2.38
2023-04-29T10:39:36.400Z,3.30
2023-04-29T10:42:06.163Z,2.67
2023-04-29T10:44:32.727Z,1.70
2023-04-29T10:47:28.669Z,1.88
2023-04-29T10:50:05.637Z,1.73
2023-04-29T10:52:51.798Z,2.15
2023-04-29T10:55:18.489Z,1.52
2023-04-29T10:57:45.047Z,1.55
2023-04-29T11:00:29.178Z,1.42
2023-04-29T11:02:57.052Z,1.50
2023-04-29T11:05:35.205Z,2.92
2023-04-29T11:08:23.031Z,1.88
2023-04-29T11:10:54.351Z,1.48
2023-04-29T11:13:22.239Z,1.33
2023-04-29T11:15:49.191Z,1.45
2023-04-29T11:18:16.170Z,1.10
2023-04-29T11:21:07.434Z,1.65
2023-04-29T11:23:35.688Z,1.67
2023-04-29T11:26:03.020Z,1.65
2023-04-29T11:28:31.508Z,1.05
2023-04-29T11:30:59.183Z,1.20
2023-04-29T11:33:29.910Z,0.70
2023-04-29T11:35:57.057Z,1.40
2023-04-29T11:38:28.051Z,0.88
2023-04-29T11:40:59.429Z,0.50
2023-04-29T11:43:26.276Z,1.33
2023-04-29T11:45:54.185Z,0.73
2023-04-29T11:48:21.953Z,1.13
2023-04-29T11:50:59.047Z,1.15
2023-04-29T11:53:28.104Z,1.27
2023-04-29T11:55:55.398Z,1.00
2023-04-29T11:58:23.406Z,0.98
2023-04-29T12:00:50.936Z,1.10
2023-04-29T12:03:20.789Z,1.05
2023-04-29T12:05:48.003Z,1.33
2023-04-29T12:08:15.085Z,1.15
2023-04-29T12:10:41.788Z,1.05
2023-04-29T12:13:10.202Z,0.90
2023-04-29T12:15:38.394Z,1.02
2023-04-29T12:18:07.425Z,0.93
2023-04-29T12:20:34.574Z,1.10
2023-04-29T12:23:24.256Z,0.88
2023-04-29T12:25:55.936Z,0.60
2023-04-29T12:28:23.148Z,1.30
2023-04-29T12:30:51.849Z,0.70
2023-04-29T12:33:25.554Z,1.25
2023-04-29T12:35:53.333Z,1.20
2023-04-29T12:38:30.188Z,0.90
2023-04-29T12:40:59.814Z,0.93
2023-04-29T12:43:30.476Z,1.00
2023-04-29T12:46:04.592Z,1.08
2023-04-29T12:48:33.565Z,0.93
2023-04-29T12:51:01.825Z,0.98
2023-04-29T12:53:32.510Z,0.90
2023-04-29T12:55:59.593Z,1.02
2023-04-29T12:58:30.180Z,1.10
2023-04-29T13:00:57.769Z,0.88
2023-04-29T13:03:24.951Z,1.23
2023-04-29T13:05:53.908Z,0.90
2023-04-29T13:08:21.277Z,1.00
2023-04-29T13:10:48.100Z,1.08
2023-04-29T13:13:14.682Z,1.00
2023-04-29T13:15:41.597Z,0.98
2023-04-29T13:18:08.514Z,1.52
2023-04-29T13:20:40.889Z,0.93
2023-04-29T13:23:08.743Z,1.20
2023-04-29T13:25:35.593Z,1.42
2023-04-29T13:28:02.334Z,0.80
2023-04-29T13:30:28.925Z,1.10
2023-04-29T13:32:59.898Z,0.75
2023-04-29T13:35:31.005Z,1.10
2023-04-29T13:37:57.831Z,1.02
2023-04-29T13:40:27.720Z,1.30
2023-04-29T13:43:02.218Z,1.20
2023-04-29T13:45:38.844Z,1.00
2023-04-29T13:48:20.110Z,1.00
2023-04-29T13:53:41.013Z,0.40
2023-04-29T13:59:19.811Z,0.52
2023-04-29T14:02:15.000Z,0.80
2023-04-29T14:04:12.152Z,0.93
2023-04-29T14:06:39.623Z,0.95
2023-04-29T14:09:06.350Z,0.73
2023-04-29T14:11:36.591Z,0.60
2023-04-29T14:14:03.833Z,1.17
2023-04-29T14:16:30.764Z,1.00
2023-04-29T14:18:57.628Z,0.73
2023-04-29T14:21:24.567Z,0.50
2023-04-29T14:23:51.260Z,1.45
2023-04-29T14:26:27.958Z,0.70
2023-04-29T14:28:59.986Z,1.30
2023-04-29T14:31:28.900Z,1.25
2023-04-29T14:33:59.443Z,1.08
2023-04-29T14:36:29.397Z,0.90
2023-04-29T14:38:56.126Z,1.33
2023-04-29T14:41:22.751Z,1.20
2023-04-29T14:43:49.369Z,1.13
2023-04-29T14:46:16.697Z,1.55
2023-04-29T14:48:43.625Z,1.45
2023-04-29T14:51:10.786Z,1.50
2023-04-29T14:53:37.564Z,1.52
2023-04-29T14:56:04.377Z,1.95
2023-04-29T14:58:31.160Z,1.83
2023-04-29T15:00:57.797Z,1.20
2023-04-29T15:03:24.642Z,2.08
2023-04-29T15:05:51.940Z,1.90
2023-04-29T15:08:19.678Z,1.30
2023-04-29T15:10:47.858Z,1.55
2023-04-29T15:13:15.110Z,2.00
2023-04-29T15:15:42.158Z,1.63
2023-04-29T15:18:09.171Z,1.73
2023-04-29T15:20:37.140Z,2.70
2023-04-29T15:23:04.834Z,1.40
2023-04-29T15:25:33.737Z,1.60
2023-04-29T15:28:01.478Z,1.48
2023-04-29T15:30:28.169Z,1.13
2023-04-29T15:32:55.507Z,2.08
2023-04-29T15:35:22.216Z,1.80
2023-04-29T15:37:49.157Z,1.48
2023-04-29T15:40:16.996Z,2.22
2023-04-29T15:42:43.766Z,1.35
2023-04-29T15:45:10.999Z,1.67
2023-04-29T15:47:37.680Z,1.63
2023-04-29T15:50:04.889Z,1.88
2023-04-29T15:52:31.664Z,1.90
2023-04-29T15:54:58.462Z,2.75
2023-04-29T15:57:25.998Z,1.70
2023-04-29T15:59:52.977Z,1.42
2023-04-29T16:02:21.203Z,1.50
2023-04-29T16:04:48.068Z,1.90
2023-04-29T16:07:14.787Z,1.83
2023-04-29T16:09:41.457Z,2.08
2023-04-29T16:12:08.774Z,1.80
2023-04-29T16:14:35.414Z,1.75
2023-04-29T16:17:02.251Z,1.50
2023-04-29T16:19:29.057Z,1.95
2023-04-29T16:21:55.787Z,1.75
2023-04-29T16:24:22.865Z,1.30
2023-04-29T16:26:50.871Z,1.95
2023-04-29T16:29:18.361Z,2.15
2023-04-29T16:31:45.217Z,1.70
2023-04-29T16:34:12.487Z,1.88
2023-04-29T16:36:39.399Z,2.22
2023-04-29T16:39:07.683Z,1.77
2023-04-29T16:41:34.582Z,1.98
2023-04-29T16:44:01.171Z,1.60
2023-04-29T16:46:28.082Z,1.67
2023-04-29T16:48:56.887Z,1.95
2023-04-29T16:51:27.500Z,2.95
2023-04-29T16:53:54.887Z,2.55
2023-04-29T16:56:24.498Z,1.73
2023-04-29T16:58:51.724Z,2.45
2023-04-29T17:01:19.804Z,2.35
2023-04-29T17:03:48.059Z,2.13
2023-04-29T17:06:16.098Z,2.30
2023-04-29T17:08:44.329Z,2.63
2023-04-29T17:11:11.098Z,1.70
2023-04-29T17:13:37.757Z,2.60
2023-04-29T17:16:04.829Z,2.72
2023-04-29T17:18:31.527Z,1.77
2023-04-29T17:20:58.296Z,2.13
2023-04-29T17:23:25.072Z,2.78
2023-04-29T17:25:52.836Z,2.28
2023-04-29T17:28:19.864Z,1.60
2023-04-29T17:30:46.613Z,2.47
2023-04-29T17:33:14.268Z,2.50
2023-04-29T17:35:41.231Z,2.05
2023-04-29T17:38:08.096Z,2.85
2023-04-29T17:40:34.753Z,1.90
2023-04-29T17:43:01.617Z,1.90
2023-04-29T17:45:28.294Z,2.67
2023-04-29T17:47:55.699Z,2.22
2023-04-29T17:50:22.376Z,2.70
2023-04-29T17:52:48.987Z,2.53
2023-04-29T17:55:15.618Z,4.65
2023-04-29T17:57:42.275Z,2.65
2023-04-29T18:00:09.758Z,3.20
2023-04-29T18:02:37.314Z,2.80
2023-04-29T18:05:04.509Z,2.53
2023-04-29T18:07:31.244Z,2.72
2023-04-29T18:09:58.643Z,2.85
2023-04-29T18:12:25.652Z,2.47
2023-04-29T18:14:52.367Z,2.17
2023-04-29T18:17:19.917Z,2.30
2023-04-29T18:19:48.803Z,2.38
2023-04-29T18:22:16.160Z,2.63
2023-04-29T18:24:43.383Z,3.17
2023-04-29T18:27:10.201Z,2.95
2023-04-29T18:29:36.782Z,2.75
2023-04-29T18:32:05.715Z,2.30
2023-04-29T18:34:34.143Z,2.97
2023-04-29T18:37:01.516Z,2.50
2023-04-29T18:39:28.103Z,2.75
2023-04-29T18:41:54.894Z,3.42
2023-04-29T18:44:21.522Z,3.00
2023-04-29T18:46:48.152Z,3.30
2023-04-29T18:49:17.019Z,3.35
2023-04-29T18:51:47.578Z,3.50
2023-04-29T18:54:16.106Z,3.50
2023-04-29T18:56:46.563Z,2.90
2023-04-29T18:59:16.625Z,3.15
2023-04-29T19:01:43.568Z,3.22
2023-04-29T19:04:10.458Z,3.45
2023-04-29T19:06:37.681Z,2.80
2023-04-29T19:09:08.473Z,3.13
2023-04-29T19:11:35.218Z,3.90
2023-04-29T19:14:03.980Z,4.35
2023-04-29T19:16:30.627Z,5.40
2023-04-29T19:18:57.570Z,6.68
2023-04-29T19:21:24.806Z,6.85
2023-04-29T19:23:51.613Z,6.63
2023-04-29T19:26:18.228Z,5.68
2023-04-29T19:28:46.061Z,4.93
2023-04-29T19:31:12.785Z,3.90
2023-04-29T19:33:39.598Z,4.97
2023-04-29T19:36:06.707Z,4.43
2023-04-29T19:38:34.060Z,5.22
2023-04-29T19:41:00.877Z,5.10
2023-04-29T19:43:27.593Z,5.35
2023-04-29T19:45:56.016Z,5.57
2023-04-29T19:48:22.690Z,6.82
2023-04-29T19:50:49.582Z,7.50
2023-04-29T19:53:16.338Z,5.68
2023-04-29T19:55:43.068Z,5.70
2023-04-29T19:58:10.472Z,4.63
2023-04-29T20:00:37.381Z,5.07
2023-04-29T20:03:04.128Z,5.00
2023-04-29T20:05:31.018Z,3.83
2023-04-29T20:07:57.679Z,5.72
2023-04-29T20:10:25.068Z,4.03
2023-04-29T20:12:53.046Z,4.18
2023-04-29T20:15:19.731Z,4.07
2023-04-29T20:17:46.764Z,4.22
2023-04-29T20:20:13.629Z,4.55
2023-04-29T20:22:43.943Z,4.13
2023-04-29T20:25:12.626Z,3.35
2023-04-29T20:27:39.823Z,3.80
2023-04-29T20:30:07.194Z,3.95
2023-04-29T20:32:33.769Z,3.85
2023-04-29T20:35:00.352Z,3.90
2023-04-29T20:37:27.061Z,3.45
2023-04-29T20:39:53.918Z,4.50
2023-04-29T20:42:21.046Z,5.30
2023-04-29T20:44:47.618Z,4.43
2023-04-29T20:47:14.333Z,3.88
2023-04-29T20:49:41.020Z,4.25
2023-04-29T20:52:07.681Z,4.60
2023-04-29T20:54:34.648Z,4.55
2023-04-29T20:57:04.816Z,3.90
2023-04-29T20:59:32.922Z,4.55
2023-04-29T21:01:59.773Z,5.30
2023-04-29T21:04:26.534Z,5.28
2023-04-29T21:06:53.230Z,4.68
2023-04-29T21:09:20.491Z,5.00
2023-04-29T21:11:48.211Z,5.15
2023-04-29T21:14:14.862Z,4.72
2023-04-29T21:16:42.473Z,5.30
2023-04-29T21:19:09.129Z,4.93
2023-04-29T21:21:35.779Z,5.10
2023-04-29T21:24:03.117Z,5.50
2023-04-29T21:26:29.787Z,5.22
2023-04-29T21:28:56.506Z,4.93
2023-04-29T21:31:23.217Z,3.92
2023-04-29T21:33:49.867Z,4.50
2023-04-29T21:36:16.591Z,4.43
2023-04-29T21:38:43.202Z,5.75
2023-04-29T21:41:27.382Z,5.03
2023-04-29T21:44:01.947Z,4.93
2023-04-29T21:46:29.148Z,5.70
2023-04-29T21:48:57.795Z,5.38
2023-04-29T21:51:24.634Z,5.10
2023-04-29T21:53:51.360Z,5.38
2023-04-29T21:56:18.594Z,5.97
2023-04-29T21:58:45.714Z,5.75
2023-04-29T22:01:39.845Z,5.90
2023-04-29T22:04:06.710Z,5.35
2023-04-29T22:06:34.565Z,5.80
2023-04-29T22:09:01.604Z,5.45
2023-04-29T22:11:28.443Z,5.28
2023-04-29T22:13:55.143Z,5.05
2023-04-29T22:16:23.545Z,5.35
2023-04-29T22:18:50.568Z,5.35
2023-04-29T22:21:18.013Z,5.93
2023-04-29T22:23:45.013Z,4.95
2023-04-29T22:26:11.640Z,6.22
2023-04-29T22:28:38.291Z,5.13
2023-04-29T22:31:05.009Z,5.07
2023-04-29T22:33:31.854Z,5.75
2023-04-29T22:35:58.424Z,5.93
2023-04-29T22:38:25.127Z,5.63
2023-04-29T22:40:52.911Z,5.78
2023-04-29T22:43:19.599Z,6.13
2023-04-29T22:45:53.320Z,5.88
2023-04-29T22:48:20.688Z,5.72
2023-04-29T22:50:57.298Z,6.13
2023-04-29T22:53:23.972Z,6.47
2023-04-29T22:55:55.871Z,5.38
2023-04-29T22:58:25.401Z,5.65
2023-04-29T23:00:54.700Z,6.05
2023-04-29T23:03:21.458Z,6.80
2023-04-29T23:05:48.417Z,5.80
2023-04-29T23:08:15.062Z,5.65
2023-04-29T23:10:41.841Z,6.10
2023-04-29T23:13:08.618Z,6.70
2023-04-29T23:15:35.712Z,6.68
2023-04-29T23:18:02.431Z,7.82
2023-04-29T23:20:29.529Z,7.25
2023-04-29T23:22:56.166Z,7.38
2023-04-29T23:25:22.873Z,7.45
2023-04-29T23:27:49.461Z,7.22
2023-04-29T23:30:16.155Z,7.45
2023-04-29T23:32:42.853Z,6.80
2023-04-29T23:35:11.593Z,7.35
2023-04-29T23:37:38.873Z,7.88
2023-04-29T23:40:07.126Z,7.15
2023-04-29T23:42:33.853Z,6.97
2023-04-29T23:45:00.655Z,7.07
2023-04-29T23:47:27.289Z,6.65
2023-04-29T23:49:54.137Z,6.05
2023-04-29T23:52:20.882Z,5.88
2023-04-29T23:54:47.470Z,5.45
2023-04-29T23:57:14.110Z,6.20
2023-04-29T23:59:42.477Z,5.43
